createdAt,value
2023-01-19T00:01:24.835Z,1005.08
2023-01-19T00:03:24.682Z,1005.08
2023-01-19T00:05:24.692Z,1005.08
2023-01-19T00:07:24.790Z,1005.09
2023-01-19T00:09:24.727Z,1005.09
2023-01-19T00:11:24.810Z,1005.09
2023-01-19T00:13:24.696Z,1005.06
2023-01-19T00:15:25.194Z,1005.11
2023-01-19T00:17:24.743Z,1005.11
2023-01-19T00:19:24.707Z,1005.17
2023-01-19T00:21:24.686Z,1005.17
2023-01-19T00:23:24.721Z,1005.22
2023-01-19T00:25:24.777Z,1005.21
2023-01-19T00:27:24.732Z,1005.26
2023-01-19T00:29:24.731Z,1005.26
2023-01-19T00:31:24.739Z,1005.26
2023-01-19T00:33:24.772Z,1005.32
2023-01-19T00:35:24.726Z,1005.31
2023-01-19T00:37:24.812Z,1005.31
2023-01-19T00:39:24.713Z,1005.31
2023-01-19T00:41:24.744Z,1005.31
2023-01-19T00:43:24.854Z,1005.32
2023-01-19T00:45:24.827Z,1005.36
2023-01-19T00:47:24.706Z,1005.36
2023-01-19T00:49:54.755Z,1005.36
2023-01-19T00:51:54.709Z,1005.43
2023-01-19T00:53:54.697Z,1005.43
2023-01-19T00:55:54.699Z,1005.45
2023-01-19T00:57:54.741Z,1005.44
2023-01-19T00:59:54.821Z,1005.44
2023-01-19T01:01:54.879Z,1005.44
2023-01-19T01:03:54.703Z,1005.44
2023-01-19T01:05:54.769Z,1005.44
2023-01-19T01:07:54.815Z,1005.46
2023-01-19T01:09:54.727Z,1005.50
2023-01-19T01:11:54.776Z,1005.50
2023-01-19T01:13:54.736Z,1005.53
2023-01-19T01:15:54.757Z,1005.53
2023-01-19T01:17:55.012Z,1005.51
2023-01-19T01:19:54.730Z,1005.51
2023-01-19T01:21:54.761Z,1005.51
2023-01-19T01:23:54.729Z,1005.52
2023-01-19T01:25:54.850Z,1005.48
2023-01-19T01:27:54.751Z,1005.48
2023-01-19T01:29:54.751Z,1005.48
2023-01-19T01:31:54.814Z,1005.48
2023-01-19T01:33:54.842Z,1005.47
2023-01-19T01:35:54.790Z,1005.47
2023-01-19T01:37:54.821Z,1005.52
2023-01-19T01:39:54.781Z,1005.52
2023-01-19T01:41:55.888Z,1005.52
2023-01-19T01:43:54.721Z,1005.60
2023-01-19T01:45:54.757Z,1005.60
2023-01-19T01:47:54.740Z,1005.61
2023-01-19T01:49:54.821Z,1005.61
2023-01-19T01:51:54.847Z,1005.61
2023-01-19T01:53:54.768Z,1005.65
2023-01-19T01:55:54.858Z,1005.65
2023-01-19T01:57:54.771Z,1005.65
2023-01-19T01:59:54.748Z,1005.65
2023-01-19T02:01:54.890Z,1005.65
2023-01-19T02:03:54.804Z,1005.72
2023-01-19T02:05:54.749Z,1005.72
2023-01-19T02:07:54.777Z,1005.72
2023-01-19T02:09:54.792Z,1005.72
2023-01-19T02:11:54.932Z,1005.72
2023-01-19T02:13:54.768Z,1005.68
2023-01-19T02:15:54.802Z,1005.68
2023-01-19T02:17:54.750Z,1005.68
2023-01-19T02:19:54.787Z,1005.71
2023-01-19T02:21:55.079Z,1005.71
2023-01-19T02:23:54.826Z,1005.80
2023-01-19T02:25:54.806Z,1005.83
2023-01-19T02:27:54.810Z,1005.83
2023-01-19T02:29:54.791Z,1005.84
2023-01-19T02:31:54.810Z,1005.87
2023-01-19T02:34:24.769Z,1005.87
2023-01-19T02:36:24.784Z,1005.87
2023-01-19T02:38:24.883Z,1005.98
2023-01-19T02:40:24.785Z,1005.98
2023-01-19T02:42:24.814Z,1005.98
2023-01-19T02:44:24.811Z,1006.01
2023-01-19T02:46:24.943Z,1006.01
2023-01-19T02:48:24.758Z,1005.97
2023-01-19T02:50:24.806Z,1005.97
2023-01-19T02:52:24.760Z,1005.97
2023-01-19T02:54:24.785Z,1005.96
2023-01-19T02:56:24.873Z,1005.96
2023-01-19T02:58:24.801Z,1005.96
2023-01-19T03:00:24.820Z,1005.95
2023-01-19T03:02:07.384Z,1005.95
2023-01-19T03:04:07.255Z,1005.97
2023-01-19T03:06:07.275Z,1005.97
2023-01-19T03:08:07.230Z,1006.01
2023-01-19T03:10:07.235Z,1006.01
2023-01-19T03:12:07.331Z,1006.01
2023-01-19T03:14:07.435Z,1006.01
2023-01-19T03:16:07.355Z,1006.01
2023-01-19T03:18:37.408Z,1006.03
2023-01-19T03:20:37.282Z,1006.07
2023-01-19T03:22:37.271Z,1006.08
2023-01-19T03:24:37.909Z,1006.08
2023-01-19T03:26:37.285Z,1006.08
2023-01-19T03:28:37.313Z,1006.08
2023-01-19T03:30:37.382Z,1006.08
2023-01-19T03:32:37.292Z,1006.08
2023-01-19T03:34:37.239Z,1006.13
2023-01-19T03:36:37.292Z,1006.13
2023-01-19T03:38:37.269Z,1006.20
2023-01-19T03:40:37.267Z,1006.20
2023-01-19T03:42:37.317Z,1006.20
2023-01-19T03:44:37.270Z,1006.31
2023-01-19T03:46:37.275Z,1006.31
2023-01-19T03:48:37.297Z,1006.28
2023-01-19T03:50:37.242Z,1006.30
2023-01-19T03:52:37.307Z,1006.30
2023-01-19T03:54:37.321Z,1006.30
2023-01-19T03:56:37.342Z,1006.30
2023-01-19T03:58:37.345Z,1006.24
2023-01-19T04:00:37.277Z,1006.24
2023-01-19T04:02:37.341Z,1006.24
2023-01-19T04:04:37.277Z,1006.24
2023-01-19T04:06:37.265Z,1006.22
2023-01-19T04:08:37.307Z,1006.25
2023-01-19T04:10:37.301Z,1006.25
2023-01-19T04:12:37.367Z,1006.30
2023-01-19T04:14:37.314Z,1006.30
2023-01-19T04:16:37.382Z,1006.26
2023-01-19T04:18:37.324Z,1006.26
2023-01-19T04:20:37.279Z,1006.26
2023-01-19T04:22:40.534Z,1006.25
2023-01-19T04:24:37.326Z,1006.27
2023-01-19T04:26:37.318Z,1006.27
2023-01-19T04:28:37.444Z,1006.30
2023-01-19T04:30:37.357Z,1006.30
2023-01-19T04:32:37.306Z,1006.30
2023-01-19T04:34:37.292Z,1006.24
2023-01-19T04:36:37.278Z,1006.24
2023-01-19T04:38:37.303Z,1006.24
2023-01-19T04:40:37.296Z,1006.20
2023-01-19T04:42:37.282Z,1006.20
2023-01-19T04:44:37.300Z,1006.22
2023-01-19T04:46:37.356Z,1006.15
2023-01-19T04:48:37.411Z,1006.15
2023-01-19T04:50:37.296Z,1006.16
2023-01-19T04:52:37.384Z,1006.14
2023-01-19T04:54:37.418Z,1006.14
2023-01-19T04:56:37.396Z,1006.19
2023-01-19T04:58:37.382Z,1006.19
2023-01-19T05:00:37.284Z,1006.22
2023-01-19T05:03:07.454Z,1006.22
2023-01-19T05:05:07.476Z,1006.27
2023-01-19T05:07:07.307Z,1006.33
2023-01-19T05:09:07.362Z,1006.33
2023-01-19T05:11:07.320Z,1006.33
2023-01-19T05:13:07.273Z,1006.33
2023-01-19T05:15:07.547Z,1006.33
2023-01-19T05:17:07.419Z,1006.42
2023-01-19T05:19:07.308Z,1006.41
2023-01-19T05:21:07.346Z,1006.41
2023-01-19T05:23:07.382Z,1006.45
2023-01-19T05:25:07.331Z,1006.46
2023-01-19T05:27:07.318Z,1006.45
2023-01-19T05:29:07.398Z,1006.49
2023-01-19T05:31:07.445Z,1006.49
2023-01-19T05:33:07.314Z,1006.54
2023-01-19T05:35:07.291Z,1006.54
2023-01-19T05:37:07.318Z,1006.55
2023-01-19T05:39:07.441Z,1006.55
2023-01-19T05:41:07.462Z,1006.57
2023-01-19T05:43:07.310Z,1006.58
2023-01-19T05:45:07.285Z,1006.58
2023-01-19T05:47:07.322Z,1006.64
2023-01-19T05:49:07.308Z,1006.64
2023-01-19T05:51:07.363Z,1006.69
2023-01-19T05:53:07.403Z,1006.69
2023-01-19T05:55:07.298Z,1006.74
2023-01-19T05:57:07.339Z,1006.74
2023-01-19T05:59:07.434Z,1006.74
2023-01-19T06:01:07.362Z,1006.74
2023-01-19T06:03:07.370Z,1006.74
2023-01-19T06:05:07.318Z,1006.74
2023-01-19T06:07:07.506Z,1006.74
2023-01-19T06:09:07.393Z,1006.74
2023-01-19T06:11:07.348Z,1006.74
2023-01-19T06:13:07.371Z,1006.74
2023-01-19T06:15:07.520Z,1006.74
2023-01-19T06:17:07.427Z,1006.74
2023-01-19T06:19:07.367Z,1006.84
2023-01-19T06:21:07.345Z,1006.84
2023-01-19T06:23:07.887Z,1006.79
2023-01-19T06:25:07.434Z,1006.79
2023-01-19T06:27:07.358Z,1006.79
2023-01-19T06:29:07.352Z,1006.87
2023-01-19T06:31:07.382Z,1006.84
2023-01-19T06:33:07.404Z,1006.88
2023-01-19T06:35:07.337Z,1006.88
2023-01-19T06:37:07.338Z,1006.88
2023-01-19T06:39:07.504Z,1006.88
2023-01-19T06:41:07.433Z,1006.90
2023-01-19T06:43:07.351Z,1006.90
2023-01-19T06:45:37.435Z,1006.90
2023-01-19T06:47:37.457Z,1006.96
2023-01-19T06:49:37.347Z,1006.96
2023-01-19T06:51:37.343Z,1006.96
2023-01-19T06:53:37.422Z,1006.95
2023-01-19T06:55:37.377Z,1006.95
2023-01-19T06:57:37.443Z,1006.95
2023-01-19T06:59:37.453Z,1007.06
2023-01-19T07:01:37.435Z,1007.08
2023-01-19T07:03:37.505Z,1007.11
2023-01-19T07:05:37.407Z,1007.11
2023-01-19T07:07:37.382Z,1007.17
2023-01-19T07:09:37.543Z,1007.16
2023-01-19T07:11:37.430Z,1007.18
2023-01-19T07:13:37.447Z,1007.18
2023-01-19T07:15:37.360Z,1007.14
2023-01-19T07:17:37.366Z,1007.16
2023-01-19T07:19:37.353Z,1007.16
2023-01-19T07:21:37.362Z,1007.19
2023-01-19T07:23:37.608Z,1007.19
2023-01-19T07:25:37.414Z,1007.30
2023-01-19T07:27:37.655Z,1007.30
2023-01-19T07:29:37.435Z,1007.31
2023-01-19T07:31:37.648Z,1007.30
2023-01-19T07:33:37.366Z,1007.30
2023-01-19T07:35:37.345Z,1007.29
2023-01-19T07:37:37.328Z,1007.29
2023-01-19T07:39:37.371Z,1007.29
2023-01-19T07:41:37.395Z,1007.29
2023-01-19T07:43:37.441Z,1007.37
2023-01-19T07:45:37.378Z,1007.38
2023-01-19T07:47:37.378Z,1007.40
2023-01-19T07:49:37.398Z,1007.37
2023-01-19T07:51:37.384Z,1007.37
2023-01-19T07:53:37.385Z,1007.39
2023-01-19T07:55:37.467Z,1007.43
2023-01-19T07:57:37.386Z,1007.46
2023-01-19T07:59:37.358Z,1007.50
2023-01-19T08:01:37.419Z,1007.50
2023-01-19T08:03:37.377Z,1007.55
2023-01-19T08:05:37.450Z,1007.59
2023-01-19T08:07:37.385Z,1007.59
2023-01-19T08:09:37.362Z,1007.59
2023-01-19T08:11:37.371Z,1007.63
2023-01-19T08:13:37.479Z,1007.71
2023-01-19T08:15:37.486Z,1007.75
2023-01-19T08:17:37.400Z,1007.75
2023-01-19T08:19:38.185Z,1007.75
2023-01-19T08:21:37.360Z,1007.75
2023-01-19T08:23:37.383Z,1007.74
2023-01-19T08:25:37.370Z,1007.82
2023-01-19T08:27:37.397Z,1007.82
2023-01-19T08:29:37.485Z,1007.82
2023-01-19T08:32:07.519Z,1007.82
2023-01-19T08:34:07.393Z,1007.82
2023-01-19T08:36:07.402Z,1007.83
2023-01-19T08:38:07.473Z,1007.79
2023-01-19T08:40:07.392Z,1007.80
2023-01-19T08:42:07.394Z,1007.80
2023-01-19T08:44:07.364Z,1007.76
2023-01-19T08:46:07.635Z,1007.75
2023-01-19T08:48:07.420Z,1007.76
2023-01-19T08:50:07.365Z,1007.80
2023-01-19T08:52:07.443Z,1007.80
2023-01-19T08:54:07.458Z,1007.77
2023-01-19T08:56:07.397Z,1007.77
2023-01-19T08:58:07.403Z,1007.77
2023-01-19T09:00:07.603Z,1007.77
2023-01-19T09:02:07.510Z,1007.77
2023-01-19T09:04:07.422Z,1007.70
2023-01-19T09:06:07.385Z,1007.66
2023-01-19T09:08:07.396Z,1007.70
2023-01-19T09:10:07.416Z,1007.70
2023-01-19T09:12:07.421Z,1007.75
2023-01-19T09:14:07.778Z,1007.75
2023-01-19T09:16:07.605Z,1007.70
2023-01-19T09:18:07.452Z,1007.68
2023-01-19T09:20:07.406Z,1007.68
2023-01-19T09:22:07.419Z,1007.71
2023-01-19T09:24:07.424Z,1007.70
2023-01-19T09:26:07.413Z,1007.70
2023-01-19T09:28:07.384Z,1007.77
2023-01-19T09:30:07.591Z,1007.77
2023-01-19T09:32:07.416Z,1007.80
2023-01-19T09:34:07.412Z,1007.83
2023-01-19T09:36:07.420Z,1007.94
2023-01-19T09:38:07.464Z,1007.94
2023-01-19T09:40:07.484Z,1007.94
2023-01-19T09:42:07.414Z,1007.98
2023-01-19T09:44:07.413Z,1007.97
2023-01-19T09:46:07.543Z,1007.97
2023-01-19T09:48:07.724Z,1007.97
2023-01-19T09:50:07.533Z,1008.01
2023-01-19T09:52:07.429Z,1008.04
2023-01-19T09:56:07.438Z,1008.06
2023-01-19T09:58:07.492Z,1008.06
2023-01-19T10:00:07.457Z,1008.05
2023-01-19T10:02:07.458Z,1008.07
2023-01-19T10:04:07.524Z,1008.13
2023-01-19T10:06:07.435Z,1008.12
2023-01-19T10:08:07.497Z,1008.12
2023-01-19T10:10:07.511Z,1008.16
2023-01-19T10:12:07.457Z,1008.14
2023-01-19T10:14:07.496Z,1008.17
2023-01-19T10:18:37.469Z,1008.14
2023-01-19T10:24:29.238Z,1008.03
2023-01-19T10:26:29.249Z,1008.03
2023-01-19T10:28:29.366Z,1008.09
2023-01-19T10:30:29.278Z,1008.05
2023-01-19T10:32:29.259Z,1008.05
2023-01-19T10:34:29.251Z,1007.93
2023-01-19T10:36:29.306Z,1007.93
2023-01-19T10:38:29.301Z,1007.96
2023-01-19T10:40:29.272Z,1007.96
2023-01-19T10:42:29.249Z,1007.96
2023-01-19T10:44:29.233Z,1007.96
2023-01-19T10:46:29.558Z,1007.98
2023-01-19T10:48:29.238Z,1007.98
2023-01-19T10:50:29.269Z,1007.98
2023-01-19T10:52:29.260Z,1007.95
2023-01-19T10:54:29.280Z,1007.95
2023-01-19T10:56:29.239Z,1007.95
2023-01-19T10:58:29.286Z,1007.95
2023-01-19T11:00:29.297Z,1007.95
2023-01-19T11:02:29.517Z,1007.95
2023-01-19T11:04:29.358Z,1007.95
2023-01-19T11:06:29.294Z,1007.93
2023-01-19T11:08:29.248Z,1007.94
2023-01-19T11:10:29.268Z,1007.88
2023-01-19T11:12:29.235Z,1007.88
2023-01-19T11:14:29.266Z,1007.88
2023-01-19T11:16:29.305Z,1007.92
2023-01-19T11:18:29.335Z,1007.93
2023-01-19T11:20:29.265Z,1007.93
2023-01-19T11:22:29.257Z,1007.93
2023-01-19T11:24:29.249Z,1007.88
2023-01-19T11:26:29.243Z,1007.90
2023-01-19T11:28:29.281Z,1007.90
2023-01-19T11:30:29.268Z,1007.90
2023-01-19T11:32:29.252Z,1007.90
2023-01-19T11:34:59.314Z,1007.88
2023-01-19T11:36:59.294Z,1007.88
2023-01-19T11:38:59.272Z,1007.88
2023-01-19T11:40:59.325Z,1007.88
2023-01-19T11:42:59.609Z,1007.86
2023-01-19T11:44:59.303Z,1007.86
2023-01-19T11:46:59.264Z,1007.86
2023-01-19T11:48:59.337Z,1007.81
2023-01-19T11:50:59.290Z,1007.81
2023-01-19T11:52:59.326Z,1007.81
2023-01-19T11:54:59.277Z,1007.81
2023-01-19T11:56:59.301Z,1007.70
2023-01-19T11:58:59.320Z,1007.68
2023-01-19T12:00:59.317Z,1007.72
2023-01-19T12:02:59.441Z,1007.73
2023-01-19T12:04:59.309Z,1007.73
2023-01-19T12:06:59.285Z,1007.73
2023-01-19T12:08:59.297Z,1007.73
2023-01-19T12:10:59.312Z,1007.79
2023-01-19T12:12:59.323Z,1007.79
2023-01-19T12:14:59.295Z,1007.80
2023-01-19T12:16:59.302Z,1007.76
2023-01-19T12:18:59.336Z,1007.73
2023-01-19T12:20:59.570Z,1007.73
2023-01-19T12:22:59.824Z,1007.73
2023-01-19T12:24:59.319Z,1007.72
2023-01-19T12:26:59.278Z,1007.75
2023-01-19T12:28:59.312Z,1007.68
2023-01-19T12:30:59.427Z,1007.68
2023-01-19T12:32:59.352Z,1007.68
2023-01-19T12:34:59.324Z,1007.67
2023-01-19T12:36:59.328Z,1007.66
2023-01-19T12:38:59.299Z,1007.66
2023-01-19T12:40:59.292Z,1007.69
2023-01-19T12:42:59.296Z,1007.69
2023-01-19T12:44:59.318Z,1007.70
2023-01-19T12:46:59.362Z,1007.73
2023-01-19T12:48:59.341Z,1007.71
2023-01-19T12:50:59.331Z,1007.71
2023-01-19T12:52:59.344Z,1007.74
2023-01-19T12:54:59.324Z,1007.74
2023-01-19T12:56:59.340Z,1007.75
2023-01-19T12:58:59.294Z,1007.74
2023-01-19T13:00:59.427Z,1007.74
2023-01-19T13:02:59.377Z,1007.74
2023-01-19T13:04:59.303Z,1007.71
2023-01-19T13:06:59.337Z,1007.69
2023-01-19T13:08:59.284Z,1007.71
2023-01-19T13:10:59.391Z,1007.71
2023-01-19T13:12:59.299Z,1007.65
2023-01-19T13:14:59.675Z,1007.64
2023-01-19T13:16:59.366Z,1007.65
2023-01-19T13:18:59.293Z,1007.65
2023-01-19T13:20:59.344Z,1007.61
2023-01-19T13:22:59.301Z,1007.58
2023-01-19T13:25:29.359Z,1007.58
2023-01-19T13:27:29.341Z,1007.58
2023-01-19T13:29:29.379Z,1007.58
2023-01-19T13:31:29.332Z,1007.56
2023-01-19T13:33:29.322Z,1007.63
2023-01-19T13:35:29.389Z,1007.61
2023-01-19T13:37:31.258Z,1007.66
2023-01-19T13:39:29.332Z,1007.66
2023-01-19T13:41:29.322Z,1007.71
2023-01-19T13:43:29.365Z,1007.71
2023-01-19T13:45:29.342Z,1007.73
2023-01-19T13:47:29.346Z,1007.73
2023-01-19T13:49:29.332Z,1007.73
2023-01-19T13:51:29.309Z,1007.74
2023-01-19T13:53:29.339Z,1007.76
2023-01-19T13:55:29.340Z,1007.80
2023-01-19T13:57:29.331Z,1007.80
2023-01-19T13:59:29.351Z,1007.83
2023-01-19T14:01:29.592Z,1007.84
2023-01-19T14:03:29.403Z,1007.87
2023-01-19T14:05:29.396Z,1007.87
2023-01-19T14:07:29.389Z,1007.87
2023-01-19T14:09:29.371Z,1007.89
2023-01-19T14:11:29.342Z,1007.89
2023-01-19T14:13:29.369Z,1007.94
2023-01-19T14:15:29.423Z,1007.94
2023-01-19T14:17:29.386Z,1007.95
2023-01-19T14:19:29.404Z,1007.97
2023-01-19T14:21:29.350Z,1007.96
2023-01-19T14:23:29.370Z,1007.96
2023-01-19T14:25:29.351Z,1007.96
2023-01-19T14:27:29.368Z,1007.93
2023-01-19T14:29:29.359Z,1007.97
2023-01-19T14:31:29.391Z,1008.00
2023-01-19T14:33:29.345Z,1007.96
2023-01-19T14:35:29.549Z,1007.96
2023-01-19T14:37:29.338Z,1008.00
2023-01-19T14:39:29.375Z,1008.00
2023-01-19T14:41:29.356Z,1008.01
2023-01-19T14:43:29.337Z,1008.03
2023-01-19T14:45:29.360Z,1008.03
2023-01-19T14:47:29.379Z,1008.04
2023-01-19T14:49:29.414Z,1008.06
2023-01-19T14:51:29.380Z,1008.09
2023-01-19T14:53:29.367Z,1008.09
2023-01-19T14:55:29.405Z,1008.08
2023-01-19T14:57:29.346Z,1008.08
2023-01-19T14:59:29.391Z,1008.02
2023-01-19T15:01:29.598Z,1008.05
2023-01-19T15:03:43.676Z,1008.05
2023-01-19T15:05:29.404Z,1008.05
2023-01-19T15:07:29.393Z,1008.06
2023-01-19T15:09:59.496Z,1008.10
2023-01-19T15:11:59.388Z,1008.09
2023-01-19T15:13:59.422Z,1008.07
2023-01-19T15:15:59.611Z,1008.07
2023-01-19T15:17:59.432Z,1008.07
2023-01-19T15:19:59.440Z,1008.03
2023-01-19T15:21:59.554Z,1008.06
2023-01-19T15:23:59.361Z,1008.06
2023-01-19T15:25:59.417Z,1008.06
2023-01-19T15:27:59.380Z,1008.05
2023-01-19T15:29:59.420Z,1007.95
2023-01-19T15:31:59.404Z,1007.95
2023-01-19T15:33:59.434Z,1007.93
2023-01-19T15:35:59.499Z,1007.93
2023-01-19T15:37:59.498Z,1008.00
2023-01-19T15:39:59.487Z,1007.96
2023-01-19T15:41:59.399Z,1007.98
2023-01-19T15:43:59.543Z,1007.98
2023-01-19T15:45:59.470Z,1007.98
2023-01-19T15:47:59.417Z,1008.01
2023-01-19T15:49:59.555Z,1008.01
2023-01-19T15:51:59.559Z,1008.03
2023-01-19T15:53:59.795Z,1008.03
2023-01-19T15:55:59.861Z,1008.00
2023-01-19T15:57:59.528Z,1008.02
2023-01-19T15:59:59.401Z,1008.02
2023-01-19T16:01:59.563Z,1008.03
2023-01-19T16:03:59.472Z,1008.03
2023-01-19T16:05:59.458Z,1008.05
2023-01-19T16:08:01.720Z,1008.07
2023-01-19T16:09:59.492Z,1008.08
2023-01-19T16:11:59.461Z,1008.09
2023-01-19T16:13:59.402Z,1008.09
2023-01-19T16:15:59.469Z,1008.09
2023-01-19T16:17:59.499Z,1008.10
2023-01-19T16:19:59.567Z,1008.07
2023-01-19T16:21:59.482Z,1008.07
2023-01-19T16:23:59.501Z,1008.07
2023-01-19T16:25:59.527Z,1008.07
2023-01-19T16:27:59.491Z,1008.07
2023-01-19T16:29:59.486Z,1008.14
2023-01-19T16:31:59.631Z,1008.14
2023-01-19T16:33:59.529Z,1008.09
2023-01-19T16:35:59.490Z,1008.05
2023-01-19T16:37:59.515Z,1008.05
2023-01-19T16:39:59.616Z,1008.05
2023-01-19T16:41:59.559Z,1008.05
2023-01-19T16:43:59.438Z,1008.06
2023-01-19T16:45:59.584Z,1008.06
2023-01-19T16:47:59.544Z,1008.07
2023-01-19T16:49:59.479Z,1008.07
2023-01-19T16:51:59.481Z,1008.08
2023-01-19T16:53:59.547Z,1008.10
2023-01-19T16:56:29.843Z,1008.10
2023-01-19T16:58:29.771Z,1008.10
2023-01-19T17:00:29.529Z,1008.10
2023-01-19T17:02:29.536Z,1008.08
2023-01-19T17:04:29.503Z,1008.08
2023-01-19T17:06:30.733Z,1008.08
2023-01-19T17:08:29.550Z,1008.06
2023-01-19T17:10:29.618Z,1008.06
2023-01-19T17:12:32.101Z,1008.06
2023-01-19T17:16:29.499Z,1008.12
2023-01-19T17:18:31.759Z,1008.12
2023-01-19T17:20:12.937Z,1008.12
2023-01-19T17:22:12.614Z,1008.12
2023-01-19T17:24:12.647Z,1008.18
2023-01-19T17:26:12.655Z,1008.19
2023-01-19T17:28:12.658Z,1008.19
2023-01-19T17:30:12.933Z,1008.19
2023-01-19T17:32:12.752Z,1008.19
2023-01-19T17:34:12.641Z,1008.19
2023-01-19T17:36:12.586Z,1008.19
2023-01-19T17:38:12.618Z,1008.19
2023-01-19T17:40:12.839Z,1008.30
2023-01-19T17:42:12.645Z,1008.27
2023-01-19T17:44:42.692Z,1008.27
2023-01-19T17:46:42.703Z,1008.27
2023-01-19T17:48:42.697Z,1008.27
2023-01-19T17:50:42.664Z,1008.27
2023-01-19T17:52:42.641Z,1008.27
2023-01-19T17:54:42.685Z,1008.23
2023-01-19T17:56:42.659Z,1008.23
2023-01-19T17:58:42.682Z,1008.23
2023-01-19T18:00:42.732Z,1008.23
2023-01-19T18:02:42.754Z,1008.12
2023-01-19T18:04:42.630Z,1008.12
2023-01-19T18:06:42.713Z,1008.14
2023-01-19T18:08:42.667Z,1008.18
2023-01-19T18:10:42.721Z,1008.18
2023-01-19T18:12:42.679Z,1008.18
2023-01-19T18:14:42.806Z,1008.18
2023-01-19T18:16:42.620Z,1008.15
2023-01-19T18:18:42.629Z,1008.15
2023-01-19T18:20:42.656Z,1008.16
2023-01-19T18:22:42.662Z,1008.29
2023-01-19T18:24:42.644Z,1008.29
2023-01-19T18:26:42.738Z,1008.29
2023-01-19T18:28:42.698Z,1008.29
2023-01-19T18:30:42.823Z,1008.28
2023-01-19T18:32:42.719Z,1008.28
2023-01-19T18:34:42.953Z,1008.28
2023-01-19T18:36:42.668Z,1008.26
2023-01-19T18:38:42.686Z,1008.26
2023-01-19T18:40:42.707Z,1008.26
2023-01-19T18:42:42.766Z,1008.26
2023-01-19T18:44:42.740Z,1008.28
2023-01-19T18:46:42.783Z,1008.25
2023-01-19T18:48:42.605Z,1008.25
2023-01-19T18:50:42.650Z,1008.26
2023-01-19T18:52:43.707Z,1008.26
2023-01-19T18:54:42.713Z,1008.26
2023-01-19T18:56:42.724Z,1008.26
2023-01-19T18:58:42.728Z,1008.26
2023-01-19T19:00:42.751Z,1008.26
2023-01-19T19:02:42.639Z,1008.26
2023-01-19T19:04:42.641Z,1008.24
2023-01-19T19:06:42.694Z,1008.24
2023-01-19T19:08:42.680Z,1008.24
2023-01-19T19:10:42.807Z,1008.24
2023-01-19T19:12:42.716Z,1008.22
2023-01-19T19:14:42.728Z,1008.20
2023-01-19T19:16:42.749Z,1008.20
2023-01-19T19:18:42.667Z,1008.20
2023-01-19T19:20:42.672Z,1008.18
2023-01-19T19:22:42.677Z,1008.18
2023-01-19T19:24:42.751Z,1008.18
2023-01-19T19:26:42.815Z,1008.18
2023-01-19T19:28:42.715Z,1008.21
2023-01-19T19:31:12.863Z,1008.22
2023-01-19T19:33:12.667Z,1008.23
2023-01-19T19:35:12.896Z,1008.23
2023-01-19T19:37:12.721Z,1008.23
2023-01-19T19:39:12.766Z,1008.23
2023-01-19T19:41:12.730Z,1008.36
2023-01-19T19:43:12.757Z,1008.36
2023-01-19T19:45:12.742Z,1008.36
2023-01-19T19:47:12.781Z,1008.36
2023-01-19T19:49:12.740Z,1008.36
2023-01-19T19:51:18.148Z,1008.39
2023-01-19T19:53:12.739Z,1008.39
2023-01-19T19:55:12.894Z,1008.39
2023-01-19T19:57:15.739Z,1008.47
2023-01-19T19:59:12.763Z,1008.45
2023-01-19T20:01:12.838Z,1008.45
2023-01-19T20:03:12.659Z,1008.45
2023-01-19T20:05:12.692Z,1008.48
2023-01-19T20:07:12.719Z,1008.48
2023-01-19T20:09:12.763Z,1008.47
2023-01-19T20:11:12.741Z,1008.49
2023-01-19T20:13:12.677Z,1008.49
2023-01-19T20:15:12.771Z,1008.51
2023-01-19T20:17:12.805Z,1008.53
2023-01-19T20:19:12.700Z,1008.55
2023-01-19T20:21:12.809Z,1008.55
2023-01-19T20:23:12.828Z,1008.57
2023-01-19T20:25:12.752Z,1008.57
2023-01-19T20:27:12.858Z,1008.57
2023-01-19T20:29:12.974Z,1008.57
2023-01-19T20:31:12.777Z,1008.57
2023-01-19T20:33:12.698Z,1008.58
2023-01-19T20:35:13.106Z,1008.60
2023-01-19T20:37:12.752Z,1008.60
2023-01-19T20:39:12.764Z,1008.59
2023-01-19T20:41:12.958Z,1008.59
2023-01-19T20:43:12.772Z,1008.61
2023-01-19T20:45:13.137Z,1008.61
2023-01-19T20:47:12.775Z,1008.61
2023-01-19T20:49:12.745Z,1008.61
2023-01-19T20:51:12.744Z,1008.70
2023-01-19T20:53:12.868Z,1008.67
2023-01-19T20:55:12.946Z,1008.69
2023-01-19T20:57:12.780Z,1008.71
2023-01-19T20:59:12.834Z,1008.71
2023-01-19T21:01:12.843Z,1008.71
2023-01-19T21:03:12.686Z,1008.76
2023-01-19T21:05:12.989Z,1008.76
2023-01-19T21:07:12.785Z,1008.76
2023-01-19T21:09:12.765Z,1008.76
2023-01-19T21:11:12.805Z,1008.76
2023-01-19T21:13:12.774Z,1008.82
2023-01-19T21:15:12.976Z,1008.79
2023-01-19T21:17:45.075Z,1008.77
2023-01-19T21:19:42.724Z,1008.77
2023-01-19T21:21:42.815Z,1008.77
2023-01-19T21:23:42.768Z,1008.77
2023-01-19T21:25:42.814Z,1008.82
2023-01-19T21:27:42.805Z,1008.82
2023-01-19T21:29:42.775Z,1008.82
2023-01-19T21:31:42.882Z,1008.82
2023-01-19T21:33:42.811Z,1008.89
2023-01-19T21:35:42.734Z,1008.89
2023-01-19T21:37:42.825Z,1008.89
2023-01-19T21:39:42.741Z,1008.93
2023-01-19T21:41:42.890Z,1008.93
2023-01-19T21:43:42.707Z,1008.93
2023-01-19T21:45:43.161Z,1008.93
2023-01-19T21:47:42.752Z,1008.90
2023-01-19T21:49:42.852Z,1008.90
2023-01-19T21:51:42.760Z,1008.90
2023-01-19T21:53:42.792Z,1008.95
2023-01-19T21:55:42.784Z,1008.97
2023-01-19T21:57:42.813Z,1008.97
2023-01-19T21:59:42.832Z,1008.97
2023-01-19T22:01:42.923Z,1008.99
2023-01-19T22:03:42.837Z,1008.99
2023-01-19T22:05:42.738Z,1009.03
2023-01-19T22:07:42.821Z,1009.03
2023-01-19T22:09:42.772Z,1009.03
2023-01-19T22:11:42.836Z,1009.07
2023-01-19T22:13:42.732Z,1009.07
2023-01-19T22:15:42.938Z,1009.12
2023-01-19T22:17:42.771Z,1009.14
2023-01-19T22:19:42.760Z,1009.14
2023-01-19T22:21:42.791Z,1009.14
2023-01-19T22:23:42.794Z,1009.14
2023-01-19T22:25:42.811Z,1009.18
2023-01-19T22:27:42.829Z,1009.18
2023-01-19T22:29:42.760Z,1009.17
2023-01-19T22:31:42.756Z,1009.17
2023-01-19T22:33:42.779Z,1009.18
2023-01-19T22:35:42.784Z,1009.19
2023-01-19T22:37:42.790Z,1009.19
2023-01-19T22:39:42.856Z,1009.23
2023-01-19T22:41:42.838Z,1009.19
2023-01-19T22:43:42.862Z,1009.19
2023-01-19T22:45:42.888Z,1009.19
2023-01-19T22:47:42.858Z,1009.19
2023-01-19T22:49:43.037Z,1009.19
2023-01-19T22:51:42.801Z,1009.19
2023-01-19T22:53:42.774Z,1009.19
2023-01-19T22:55:42.715Z,1009.19
2023-01-19T22:57:42.764Z,1009.17
2023-01-19T22:59:42.728Z,1009.17
2023-01-19T23:01:42.833Z,1009.16
2023-01-19T23:04:12.772Z,1009.16
2023-01-19T23:06:12.798Z,1009.16
2023-01-19T23:08:12.724Z,1009.23
2023-01-19T23:10:12.860Z,1009.23
2023-01-19T23:12:12.838Z,1009.23
2023-01-19T23:14:12.723Z,1009.23
2023-01-19T23:16:12.760Z,1009.23
2023-01-19T23:18:12.746Z,1009.23
2023-01-19T23:20:12.749Z,1009.21
2023-01-19T23:22:12.750Z,1009.26
2023-01-19T23:24:12.728Z,1009.26
2023-01-19T23:26:12.744Z,1009.26
2023-01-19T23:28:12.744Z,1009.25
2023-01-19T23:30:12.752Z,1009.28
2023-01-19T23:32:12.776Z,1009.28
2023-01-19T23:34:12.763Z,1009.28
2023-01-19T23:36:12.830Z,1009.34
2023-01-19T23:38:12.727Z,1009.34
2023-01-19T23:40:12.772Z,1009.34
2023-01-19T23:42:12.802Z,1009.41
2023-01-19T23:44:12.901Z,1009.41
2023-01-19T23:46:12.900Z,1009.41
2023-01-19T23:48:12.795Z,1009.45
2023-01-19T23:50:12.801Z,1009.47
2023-01-19T23:52:12.815Z,1009.47
2023-01-19T23:54:12.819Z,1009.47
2023-01-19T23:56:12.755Z,1009.47
2023-01-19T23:58:12.853Z,1009.53
